Time;durP1;ratioP1;P1;durP2;ratioP2;P2;SDS_P1;SDS_P2;PMS_P1;PMS_P2;Temp;Humidity;BMP_temperature;BMP_pressure;BME280_temperature;BME280_humidity;BME280_pressure;Samples;Min_cycle;Max_cycle;Signal;HPM_P1;HPM_P2
2023/12/03 00:25:32;;;;;;;;;;;;;;;-4.20;100.00;93118.78;2586100;22;20019;-75
2023/12/03 00:26:33;;;;;;;6.95;4.68;;;;;;;-4.40;100.00;93114.38;2566931;23;20397;-76
2023/12/03 00:27:34;;;;;;;7.07;4.75;;;;;;;-4.39;100.00;93116.69;2567510;23;19996;-76
2023/12/03 00:28:35;;;;;;;6.90;5.13;;;;;;;-4.18;100.00;93121.06;2567442;23;20032;-76
2023/12/03 00:29:36;;;;;;;5.80;5.00;;;;;;;-4.22;100.00;93117.56;2567103;23;20375;-76
2023/12/03 00:30:36;;;;;;;6.28;4.70;;;;;;;-4.35;100.00;93116.78;2567738;23;20440;-75
2023/12/03 00:31:37;;;;;;;8.45;5.75;;;;;;;-4.36;100.00;93118.63;2568677;23;20008;-76
2023/12/03 00:32:38;;;;;;;7.57;5.13;;;;;;;-4.41;100.00;93108.41;2568554;23;20491;-76
2023/12/03 00:33:39;;;;;;;8.30;5.70;;;;;;;-4.54;100.00;93114.66;2556523;23;20004;-75
2023/12/03 00:34:40;;;;;;;7.97;5.47;;;;;;;-4.42;100.00;93125.13;2568829;23;20086;-76
2023/12/03 00:35:41;;;;;;;8.63;5.63;;;;;;;-4.39;100.00;93115.91;2568066;23;20395;-76
2023/12/03 00:36:42;;;;;;;6.93;5.32;;;;;;;-4.50;100.00;93125.97;2568024;23;20000;-76
2023/12/03 00:37:43;;;;;;;8.40;5.55;;;;;;;-4.43;100.00;93117.66;2581672;23;20005;-77
2023/12/03 00:38:44;;;;;;;7.95;5.38;;;;;;;-4.54;100.00;93124.34;2568767;23;20004;-75
2023/12/03 00:39:45;;;;;;;6.53;5.03;;;;;;;-4.56;100.00;93125.41;2556484;23;19997;-76
2023/12/03 00:40:46;;;;;;;7.60;5.25;;;;;;;-4.57;100.00;93120.50;2556413;23;20440;-77
2023/12/03 00:41:47;;;;;;;6.47;5.13;;;;;;;-4.65;100.00;93127.34;2568351;23;20016;-76
2023/12/03 00:42:49;;;;;;;8.77;5.80;;;;;;;-4.74;100.00;93120.66;2582718;23;20004;-76
2023/12/03 00:43:50;;;;;;;7.82;5.43;;;;;;;-4.75;100.00;93122.50;2582745;23;19996;-76
2023/12/03 00:44:51;;;;;;;6.30;5.30;;;;;;;-4.68;100.00;93119.38;2557031;23;20023;-76
2023/12/03 00:46:02;;;;;;;7.60;5.22;;;;;;;-4.62;100.00;93126.69;2532373;23;20057;-76
2023/12/03 00:47:03;;;;;;;7.72;5.45;;;;;;;-4.66;100.00;93117.97;2561585;23;20036;-75
2023/12/03 00:48:04;;;;;;;7.55;5.25;;;;;;;-4.61;100.00;93130.06;2582170;23;20008;-77
2023/12/03 00:49:06;;;;;;;8.55;6.18;;;;;;;-4.79;100.00;93132.03;2569452;23;20437;-75
2023/12/03 00:50:07;;;;;;;8.00;5.35;;;;;;;-4.77;100.00;93131.75;2556803;23;20001;-77
2023/12/03 00:51:08;;;;;;;8.27;5.57;;;;;;;-4.71;100.00;93133.06;2556797;23;20079;-77
2023/12/03 00:52:09;;;;;;;8.13;5.78;;;;;;;-4.76;100.00;93135.88;2556535;23;20595;-76
2023/12/03 00:53:10;;;;;;;8.32;5.43;;;;;;;-4.79;100.00;93139.84;2568605;23;20576;-75
2023/12/03 00:54:11;;;;;;;8.57;5.78;;;;;;;-4.80;100.00;93138.34;2568593;23;20015;-74
2023/12/03 00:55:12;;;;;;;7.00;5.35;;;;;;;-4.79;100.00;93137.25;2569047;23;20023;-77
2023/12/03 00:56:14;;;;;;;9.10;5.88;;;;;;;-4.74;100.00;93139.69;2569367;23;20007;-77
2023/12/03 00:57:15;;;;;;;8.15;5.72;;;;;;;-4.60;100.00;93140.19;2582394;23;20038;-76
2023/12/03 00:58:15;;;;;;;7.05;5.70;;;;;;;-4.43;100.00;93144.50;2569351;23;20012;-77
2023/12/03 00:59:16;;;;;;;6.82;5.13;;;;;;;-4.59;100.00;93144.31;2544141;23;20087;-76
2023/12/03 01:00:17;;;;;;;5.90;4.90;;;;;;;-4.52;100.00;93143.00;2544726;23;20084;-75
2023/12/03 01:01:22;;;;;;;7.47;5.35;;;;;;;-4.57;100.00;93143.97;2544118;23;20057;-76
2023/12/03 01:02:23;;;;;;;9.18;5.18;;;;;;;-4.56;100.00;93153.34;2545454;23;20032;-75
2023/12/03 01:03:23;;;;;;;7.53;5.10;;;;;;;-4.58;100.00;93151.03;2569261;23;20142;-75
2023/12/03 01:04:25;;;;;;;7.97;5.10;;;;;;;-4.49;100.00;93152.81;2582236;23;20004;-78
2023/12/03 01:05:26;;;;;;;8.90;5.32;;;;;;;-4.54;100.00;93151.16;2569030;23;20001;-76
2023/12/03 01:06:38;;;;;;;8.02;5.78;;;;;;;-4.57;100.00;93164.84;2555704;23;20008;-75
2023/12/03 01:07:39;;;;;;;6.97;4.90;;;;;;;-4.75;100.00;93160.84;2546597;23;20088;-75
2023/12/03 01:09:30;;;;;;;8.38;6.00;;;;;;;-4.63;100.00;93164.28;2544555;23;20009;-77
2023/12/03 01:14:28;;;;;;;6.05;4.05;;;;;;;-4.81;100.00;93160.28;2567249;23;20375;-75
2023/12/03 01:16:25;;;;;;;8.43;5.35;;;;;;;-4.68;100.00;93159.25;2569500;23;20009;-75
2023/12/03 01:17:26;;;;;;;7.97;5.00;;;;;;;-4.61;100.00;93163.94;2580539;23;20058;-76
2023/12/03 01:18:27;;;;;;;6.07;4.85;;;;;;;-4.64;100.00;93157.53;2568025;23;20012;-76
2023/12/03 01:19:28;;;;;;;7.68;5.32;;;;;;;-4.62;100.00;93167.66;2556794;23;20057;-76
2023/12/03 01:20:29;;;;;;;8.45;5.47;;;;;;;-4.64;100.00;93160.16;2556709;23;20012;-76
2023/12/03 01:21:30;;;;;;;9.63;5.90;;;;;;;-4.54;100.00;93168.66;2556635;23;20001;-76
2023/12/03 01:22:31;;;;;;;7.00;5.13;;;;;;;-4.53;100.00;93172.78;2556371;23;20036;-75
2023/12/03 01:23:32;;;;;;;6.63;5.38;;;;;;;-4.58;100.00;93171.16;2568259;23;20004;-76
2023/12/03 01:24:33;;;;;;;7.55;5.25;;;;;;;-4.67;100.00;93171.22;2568968;23;20466;-75
2023/12/03 01:25:34;;;;;;;9.05;5.50;;;;;;;-4.74;100.00;93168.38;2568783;23;20447;-75
2023/12/03 01:26:34;;;;;;;8.10;5.78;;;;;;;-4.65;100.00;93163.09;2569373;23;20009;-77
2023/12/03 01:27:39;;;;;;;9.63;6.10;;;;;;;-4.54;100.00;93163.44;2556874;23;20012;-75
2023/12/03 01:28:39;;;;;;;7.80;5.68;;;;;;;-4.68;100.00;93169.69;2570117;23;20005;-77
2023/12/03 01:30:29;;;;;;;7.47;5.50;;;;;;;-4.56;100.00;93174.22;2568856;23;20001;-78
2023/12/03 01:31:30;;;;;;;7.35;5.28;;;;;;;-4.66;100.00;93169.38;2564975;23;20112;-77
2023/12/03 01:32:31;;;;;;;8.20;5.30;;;;;;;-4.73;100.00;93169.88;2556267;23;20052;-76
2023/12/03 01:33:32;;;;;;;8.38;5.78;;;;;;;-4.90;100.00;93173.38;2569173;23;20024;-77
2023/12/03 01:34:33;;;;;;;8.13;5.65;;;;;;;-4.80;100.00;93167.00;2569442;23;20079;-75
2023/12/03 01:35:35;;;;;;;8.95;6.10;;;;;;;-4.79;100.00;93163.31;2568840;23;20586;-78
2023/12/03 01:37:04;;;;;;;7.63;5.30;;;;;;;-4.90;100.00;93170.00;2555949;23;20491;-77
2023/12/03 01:38:05;;;;;;;7.70;4.57;;;;;;;-4.77;100.00;93179.41;2555816;23;20008;-76
2023/12/03 01:39:06;;;;;;;8.00;5.47;;;;;;;-4.64;100.00;93172.44;2568265;23;20011;-74
2023/12/03 01:40:09;;;;;;;7.38;5.45;;;;;;;-4.61;100.00;93169.97;2569388;23;20055;-75
2023/12/03 01:41:55;;;;;;;6.88;5.43;;;;;;;-4.73;100.00;93171.72;2556973;23;19997;-75
2023/12/03 01:42:56;;;;;;;6.22;4.40;;;;;;;-4.70;100.00;93177.06;2553211;23;20140;-76
2023/12/03 01:46:13;;;;;;;6.30;4.38;;;;;;;-4.66;100.00;93185.78;2567964;23;20004;-76
2023/12/03 01:50:52;;;;;;;6.93;3.75;;;;;;;-4.77;100.00;93189.84;2567390;23;20445;-76
2023/12/03 01:51:53;;;;;;;5.75;4.43;;;;;;;-4.76;100.00;93195.81;2568995;23;20503;-77
2023/12/03 01:52:54;;;;;;;8.07;5.20;;;;;;;-4.81;100.00;93194.16;2567324;23;20005;-75
2023/12/03 01:53:56;;;;;;;6.68;4.70;;;;;;;-4.79;100.00;93199.06;2567604;23;20061;-76
2023/12/03 01:54:57;;;;;;;7.20;5.40;;;;;;;-4.81;100.00;93192.31;2567889;23;20052;-76
2023/12/03 01:56:02;;;;;;;8.40;5.53;;;;;;;-4.89;100.00;93189.78;2555806;23;20001;-75
2023/12/03 01:57:03;;;;;;;7.15;5.07;;;;;;;-4.78;100.00;93193.53;2568995;23;20005;-75
2023/12/03 01:58:04;;;;;;;6.18;5.18;;;;;;;-4.82;100.00;93193.41;2568097;23;20004;-77
2023/12/03 01:59:07;;;;;;;7.47;5.35;;;;;;;-4.93;100.00;93194.84;2568323;23;20001;-77
2023/12/03 02:00:09;;;;;;;8.15;5.18;;;;;;;-5.03;100.00;93187.41;2568076;23;20001;-76
2023/12/03 02:03:07;;;;;;;5.97;4.50;;;;;;;-4.92;100.00;93187.78;2567779;23;20420;-74
2023/12/03 02:04:08;;;;;;;7.75;5.20;;;;;;;-5.29;100.00;93184.19;2567877;23;20008;-77
2023/12/03 02:05:09;;;;;;;6.43;5.10;;;;;;;-5.10;100.00;93182.69;2582113;23;20099;-76
2023/12/03 02:06:12;;;;;;;7.43;4.95;;;;;;;-5.17;100.00;93186.88;2567351;23;20128;-75
2023/12/03 02:07:13;;;;;;;7.15;4.82;;;;;;;-5.16;100.00;93186.56;2568413;23;20080;-75
2023/12/03 02:08:14;;;;;;;7.72;4.93;;;;;;;-5.12;100.00;93182.25;2568372;23;20000;-74
2023/12/03 02:09:16;;;;;;;7.13;4.55;;;;;;;-5.01;100.00;93185.25;2555976;23;20321;-76
2023/12/03 02:10:17;;;;;;;9.13;5.60;;;;;;;-5.22;100.00;93187.06;2568089;23;20450;-75
2023/12/03 02:11:19;;;;;;;8.45;4.85;;;;;;;-5.08;100.00;93182.38;2567981;23;20004;-74
2023/12/03 02:12:20;;;;;;;7.07;4.75;;;;;;;-5.28;100.00;93186.47;2568711;23;20055;-78
2023/12/03 02:13:21;;;;;;;6.82;4.70;;;;;;;-5.34;100.00;93183.28;2569129;23;20012;-74
2023/12/03 02:14:22;;;;;;;7.90;5.00;;;;;;;-5.28;100.00;93186.47;2569349;23;20432;-77
2023/12/03 02:15:23;;;;;;;7.82;4.78;;;;;;;-5.42;100.00;93185.94;2569219;23;20005;-76
2023/12/03 02:16:24;;;;;;;7.38;5.10;;;;;;;-5.41;100.00;93187.44;2544095;23;20021;-76
2023/12/03 02:17:25;;;;;;;8.68;5.22;;;;;;;-5.48;100.00;93184.59;2556371;23;20016;-75
2023/12/03 02:18:27;;;;;;;6.22;5.10;;;;;;;-5.38;100.00;93186.84;2581979;23;20034;-76
2023/12/03 02:19:28;;;;;;;9.40;5.28;;;;;;;-5.42;100.00;93194.50;2568980;23;20008;-76
2023/12/03 02:20:32;;;;;;;7.97;4.95;;;;;;;-5.41;100.00;93193.41;2568819;23;20004;-75
2023/12/03 02:21:32;;;;;;;5.57;4.53;;;;;;;-5.53;100.00;93192.56;2581581;23;20000;-75
2023/12/03 02:24:38;;;;;;;;;;;;;;;-6.23;100.00;93190.19;2141158;27;20118;-76
2023/12/03 02:25:39;;;;;;;7.95;4.57;;;;;;;-6.17;100.00;93188.19;2129950;27;20611;-76
2023/12/03 02:26:40;;;;;;;7.05;4.57;;;;;;;-6.11;100.00;93189.53;2120898;28;20061;-75
2023/12/03 02:27:41;;;;;;;6.35;4.60;;;;;;;-6.18;100.00;93197.84;2121093;27;20027;-76
2023/12/03 02:28:42;;;;;;;6.53;4.80;;;;;;;-6.14;100.00;93190.94;2112970;28;20028;-74
2023/12/03 02:29:47;;;;;;;8.05;5.30;;;;;;;-6.12;100.00;93193.22;2120613;28;20034;-76
2023/12/03 02:30:48;;;;;;;9.18;5.38;;;;;;;-6.21;100.00;93187.28;2116100;27;20168;-77
2023/12/03 02:31:49;;;;;;;6.57;4.70;;;;;;;-6.33;100.00;93190.50;2130918;27;20030;-76
2023/12/03 02:32:50;;;;;;;6.60;4.55;;;;;;;-6.41;100.00;93191.25;2135389;27;20384;-77
2023/12/03 02:34:11;;;;;;;8.25;5.40;;;;;;;-6.26;100.00;93196.00;2129634;27;20058;-76
2023/12/03 02:35:12;;;;;;;7.03;4.85;;;;;;;-6.33;100.00;93195.69;2133966;27;20628;-76
2023/12/03 02:36:13;;;;;;;7.35;5.07;;;;;;;-6.44;100.00;93186.69;2112624;28;20039;-77
2023/12/03 02:37:15;;;;;;;8.00;4.97;;;;;;;-6.31;100.00;93190.97;2103965;28;20064;-75
2023/12/03 02:38:15;;;;;;;5.53;4.45;;;;;;;-6.31;100.00;93188.38;2113755;28;20464;-76
2023/12/03 02:39:16;;;;;;;7.05;5.00;;;;;;;-6.29;100.00;93194.00;2112480;28;20032;-76
2023/12/03 02:40:18;;;;;;;6.13;5.00;;;;;;;-6.40;100.00;93193.56;2126352;27;20060;-77
2023/12/03 02:41:19;;;;;;;6.50;4.88;;;;;;;-6.44;100.00;93197.09;2121648;27;20031;-76
2023/12/03 02:42:20;;;;;;;8.98;5.22;;;;;;;-6.34;100.00;93200.13;2112022;28;20032;-76
2023/12/03 02:43:20;;;;;;;8.30;5.25;;;;;;;-6.42;100.00;93192.34;2112576;28;20035;-75
2023/12/03 02:44:21;;;;;;;8.07;5.28;;;;;;;-6.52;100.00;93197.88;2121081;27;20047;-75
2023/12/03 02:45:22;;;;;;;7.25;4.70;;;;;;;-6.57;100.00;93190.97;2132355;27;20019;-76
2023/12/03 02:46:23;;;;;;;8.13;5.10;;;;;;;-6.61;100.00;93187.47;2138267;27;20126;-76
2023/12/03 02:47:24;;;;;;;6.20;5.20;;;;;;;-6.62;100.00;93183.34;2138207;27;20048;-77
2023/12/03 02:48:25;;;;;;;8.50;5.28;;;;;;;-6.73;100.00;93188.06;2129227;27;20026;-75
2023/12/03 02:49:26;;;;;;;7.60;4.75;;;;;;;-6.71;100.00;93188.53;2129198;27;20031;-77
2023/12/03 02:50:27;;;;;;;6.65;4.80;;;;;;;-6.59;100.00;93190.50;2122092;27;20050;-76
2023/12/03 02:51:28;;;;;;;7.10;4.50;;;;;;;-6.57;100.00;93193.59;2103503;28;20039;-76
2023/12/03 02:52:29;;;;;;;5.88;4.63;;;;;;;-6.61;100.00;93195.28;2106377;27;20440;-76
2023/12/03 02:53:30;;;;;;;6.75;4.97;;;;;;;-6.79;100.00;93191.13;2114884;28;20034;-75
2023/12/03 02:54:40;;;;;;;6.45;4.60;;;;;;;-6.87;100.00;93193.41;2122338;27;20949;-76
2023/12/03 02:55:41;;;;;;;6.80;4.65;;;;;;;-6.87;100.00;93190.06;2125061;27;20027;-77
2023/12/03 02:56:42;;;;;;;6.70;4.57;;;;;;;-6.91;100.00;93197.69;2123366;27;20044;-76
2023/12/03 02:57:43;;;;;;;8.05;4.75;;;;;;;-6.92;100.00;93198.00;2131708;27;20460;-76
2023/12/03 02:58:44;;;;;;;6.43;4.55;;;;;;;-6.83;100.00;93198.78;2128114;27;20439;-76
2023/12/03 02:59:45;;;;;;;6.18;4.80;;;;;;;-6.94;100.00;93200.13;2121839;27;20098;-76
2023/12/03 03:00:46;;;;;;;6.35;4.25;;;;;;;-7.15;100.00;93199.97;2123708;27;20119;-78
2023/12/03 03:01:47;;;;;;;7.57;4.55;;;;;;;-7.08;100.00;93197.66;2117338;27;20035;-76
2023/12/03 03:02:48;;;;;;;7.90;4.97;;;;;;;-7.11;100.00;93195.69;2126469;27;20045;-77
2023/12/03 03:03:49;;;;;;;7.00;4.57;;;;;;;-7.10;100.00;93197.97;2120039;28;20492;-77
2023/12/03 03:04:50;;;;;;;6.53;4.30;;;;;;;-7.12;100.00;93192.31;2114625;28;20067;-76
2023/12/03 03:05:51;;;;;;;6.75;4.53;;;;;;;-7.13;100.00;93203.78;2111153;28;20050;-75
2023/12/03 03:08:56;;;;;;;6.97;4.28;;;;;;;-7.24;100.00;93194.75;2120714;28;20019;-76
2023/12/03 03:09:57;;;;;;;5.63;3.95;;;;;;;-7.31;100.00;93196.25;2124450;27;20535;-76
2023/12/03 03:10:58;;;;;;;6.72;4.32;;;;;;;-7.21;100.00;93190.78;2116165;28;20445;-77
2023/12/03 03:11:59;;;;;;;5.75;4.03;;;;;;;-7.27;100.00;93186.78;2127847;27;20703;-76
2023/12/03 03:13:00;;;;;;;5.60;3.85;;;;;;;-7.33;100.00;93199.16;2138468;27;20106;-76
2023/12/03 03:14:01;;;;;;;6.60;4.70;;;;;;;-7.35;100.00;93196.09;2138663;27;20015;-76
2023/12/03 03:15:03;;;;;;;6.80;4.60;;;;;;;-7.37;100.00;93198.22;2134966;27;20449;-76
2023/12/03 03:16:04;;;;;;;6.00;4.40;;;;;;;-7.35;100.00;93198.69;2129773;27;20378;-77
2023/12/03 03:17:05;;;;;;;6.80;4.55;;;;;;;-7.38;100.00;93197.44;2130089;27;20447;-74
2023/12/03 03:18:06;;;;;;;7.32;4.60;;;;;;;-7.38;100.00;93196.69;2129327;27;20452;-77
2023/12/03 03:19:07;;;;;;;6.38;4.68;;;;;;;-7.58;100.00;93194.66;2129816;27;20106;-75
2023/12/03 03:20:09;;;;;;;6.97;4.47;;;;;;;-7.51;100.00;93193.13;2120010;28;20028;-76
2023/12/03 03:21:14;;;;;;;6.57;4.47;;;;;;;-7.47;100.00;93193.28;2103621;28;20123;-77
2023/12/03 03:22:15;;;;;;;7.65;4.82;;;;;;;-7.58;100.00;93195.41;2103837;28;20431;-75
2023/12/03 03:23:16;;;;;;;7.15;4.22;;;;;;;-7.37;100.00;93200.81;2113848;28;20476;-77
2023/12/03 03:24:17;;;;;;;7.22;4.45;;;;;;;-7.39;100.00;93195.16;2122957;27;20051;-76
2023/12/03 03:25:19;;;;;;;7.18;4.50;;;;;;;-7.53;100.00;93199.69;2129687;27;20486;-76
2023/12/03 03:26:20;;;;;;;6.28;4.40;;;;;;;-7.57;100.00;93201.38;2122086;27;20364;-76
2023/12/03 03:27:25;;;;;;;7.53;4.90;;;;;;;-7.56;100.00;93197.69;2113208;27;20432;-75
2023/12/03 03:28:25;;;;;;;5.82;4.10;;;;;;;-7.55;100.00;93196.63;2115087;27;20439;-77
2023/12/03 03:29:29;;;;;;;8.18;4.10;;;;;;;-7.68;100.00;93190.47;2090665;27;20805;-76
2023/12/03 03:30:33;;;;;;;6.78;3.97;;;;;;;-7.67;100.00;93194.63;2033801;27;20027;-77
2023/12/03 03:32:11;;;;;;;6.55;4.28;;;;;;;-7.75;100.00;93197.94;2036006;27;22897;-76
2023/12/03 03:33:18;;;;;;;5.30;3.63;;;;;;;-7.71;100.00;93193.69;2047527;27;20534;-75
2023/12/03 03:34:50;;;;;;;7.13;3.92;;;;;;;-7.68;100.00;93191.25;2053432;27;20457;-78
2023/12/03 03:35:51;;;;;;;6.38;3.97;;;;;;;-7.56;100.00;93198.47;2050992;28;20461;-76
2023/12/03 03:36:52;;;;;;;6.47;4.00;;;;;;;-7.65;100.00;93197.66;2057374;28;20464;-76
2023/12/03 03:38:30;;;;;;;6.30;4.10;;;;;;;-7.66;100.00;93194.31;2055979;28;20115;-76
2023/12/03 03:39:31;;;;;;;6.40;3.97;;;;;;;-7.75;100.00;93197.94;2065073;28;20450;-76
2023/12/03 03:40:32;;;;;;;6.57;3.97;;;;;;;-7.81;100.00;93202.50;2075011;28;20441;-76
2023/12/03 03:41:33;;;;;;;5.78;4.13;;;;;;;-7.87;100.00;93203.69;2071783;28;20032;-78
2023/12/03 03:42:34;;;;;;;5.97;3.80;;;;;;;-7.85;100.00;93201.56;2078390;28;20150;-75
2023/12/03 03:43:35;;;;;;;6.50;4.32;;;;;;;-7.75;100.00;93203.13;2088911;28;20036;-76
2023/12/03 03:44:36;;;;;;;7.03;4.50;;;;;;;-7.81;100.00;93204.31;2088390;28;20791;-77
2023/12/03 03:45:36;;;;;;;6.70;4.47;;;;;;;-7.81;100.00;93205.09;2106561;28;20676;-75
2023/12/03 03:46:37;;;;;;;7.00;4.53;;;;;;;-7.76;100.00;93206.78;2110586;27;20023;-77
2023/12/03 03:48:24;;;;;;;6.35;4.43;;;;;;;-7.73;100.00;93206.19;2025639;27;20031;-75
2023/12/03 03:49:25;;;;;;;5.88;4.25;;;;;;;-7.70;100.00;93206.34;2028161;28;20032;-76
2023/12/03 03:50:29;;;;;;;7.20;4.25;;;;;;;-7.73;100.00;93213.97;2033704;28;20493;-75
2023/12/03 03:51:58;;;;;;;6.60;4.25;;;;;;;-7.81;100.00;93215.47;2039104;28;20035;-76
2023/12/03 03:53:19;;;;;;;7.85;4.22;;;;;;;-7.77;100.00;93218.22;2056025;28;21210;-76
2023/12/03 03:56:29;;;;;;;5.50;4.15;;;;;;;-7.89;100.00;93213.59;2057846;28;21071;-76
2023/12/03 03:57:52;;;;;;;7.32;4.75;;;;;;;-8.04;100.00;93219.91;2064088;28;20462;-76
2023/12/03 03:59:03;;;;;;;6.03;3.90;;;;;;;-8.13;100.00;93219.09;2070627;28;20614;-78
2023/12/03 04:02:52;;;;;;;6.28;4.03;;;;;;;-8.17;100.00;93221.50;2099123;28;20844;-75
2023/12/03 04:10:23;;;;;;;6.00;3.67;;;;;;;-8.22;100.00;93239.78;2107917;27;20441;-76
2023/12/03 04:11:24;;;;;;;5.18;3.88;;;;;;;-8.21;100.00;93233.56;2121675;27;20456;-76
2023/12/03 04:12:28;;;;;;;5.45;3.83;;;;;;;-8.15;100.00;93240.16;2114236;28;20433;-77
2023/12/03 04:19:15;;;;;;;7.78;4.03;;;;;;;-8.50;100.00;93246.94;2109083;27;20545;-76
2023/12/03 04:20:19;;;;;;;7.30;4.50;;;;;;;-8.41;100.00;93236.66;2106603;28;20529;-76
2023/12/03 04:23:07;;;;;;;6.35;4.07;;;;;;;-8.32;100.00;93247.03;2113541;27;20453;-76
2023/12/03 04:26:07;;;;;;;5.10;4.00;;;;;;;-8.37;100.00;93253.91;2098912;28;20558;-76
2023/12/03 04:27:39;;;;;;;10.25;5.32;;;;;;;-8.57;100.00;93243.22;2105725;28;20442;-76
2023/12/03 04:28:41;;;;;;;6.30;4.20;;;;;;;-8.55;100.00;93251.47;2100265;28;20458;-77
2023/12/03 04:30:21;;;;;;;6.70;3.88;;;;;;;-8.49;100.00;93255.47;2102115;28;21243;-77
2023/12/03 04:33:19;;;;;;;6.93;3.65;;;;;;;-8.44;100.00;93247.59;2105156;28;20857;-77
2023/12/03 04:36:30;;;;;;;5.18;4.05;;;;;;;-8.44;100.00;93250.94;2097538;28;20047;-78
2023/12/03 04:37:31;;;;;;;6.22;3.97;;;;;;;-8.50;100.00;93248.78;2089957;28;20529;-77
2023/12/03 04:38:32;;;;;;;7.32;4.80;;;;;;;-8.45;100.00;93251.25;2097304;28;20536;-76
2023/12/03 04:40:24;;;;;;;8.02;5.10;;;;;;;-8.45;100.00;93251.25;2097691;28;20562;-76
2023/12/03 04:41:33;;;;;;;5.35;3.67;;;;;;;-8.62;100.00;93252.63;2103603;28;20563;-76
2023/12/03 04:42:53;;;;;;;7.38;4.30;;;;;;;-8.66;100.00;93258.69;2114611;27;20426;-77
2023/12/03 04:43:54;;;;;;;7.57;4.57;;;;;;;-8.76;100.00;93257.09;2122322;27;20508;-76
2023/12/03 04:45:49;;;;;;;5.90;3.92;;;;;;;-8.68;100.00;93256.41;2114498;28;20084;-77
2023/12/03 04:47:28;;;;;;;8.05;5.00;;;;;;;-8.84;100.00;93254.44;2107124;28;20020;-77
2023/12/03 04:50:08;;;;;;;6.68;3.83;;;;;;;-8.78;100.00;93264.41;2105679;28;19987;-76
2023/12/03 04:51:14;;;;;;;5.93;3.78;;;;;;;-8.63;100.00;93269.25;2117936;27;20469;-78
2023/12/03 04:54:12;;;;;;;6.22;3.67;;;;;;;-8.78;100.00;93271.38;2112735;28;20430;-75
2023/12/03 04:55:13;;;;;;;7.57;3.95;;;;;;;-8.68;100.00;93266.75;2098348;28;20969;-77
2023/12/03 04:56:14;;;;;;;7.10;4.35;;;;;;;-8.74;100.00;93265.31;2092935;28;20060;-75
2023/12/03 04:58:11;;;;;;;7.30;4.00;;;;;;;-8.76;100.00;93271.88;2099113;28;21096;-76
2023/12/03 04:59:18;;;;;;;5.95;3.83;;;;;;;-8.76;100.00;93274.47;2110815;28;20091;-75
2023/12/03 05:00:27;;;;;;;6.32;3.83;;;;;;;-8.76;100.00;93275.22;2102899;27;20500;-77
2023/12/03 05:01:28;;;;;;;5.88;4.05;;;;;;;-8.76;100.00;93279.63;2107008;28;20465;-76
2023/12/03 05:03:06;;;;;;;6.00;4.20;;;;;;;-8.84;100.00;93269.97;2100425;28;20023;-75
2023/12/03 05:04:07;;;;;;;6.65;3.88;;;;;;;-8.94;100.00;93271.72;2029237;28;20039;-76
2023/12/03 05:05:12;;;;;;;6.75;4.20;;;;;;;-8.92;100.00;93276.59;2039609;28;20872;-78
2023/12/03 05:06:14;;;;;;;6.68;4.55;;;;;;;-8.90;100.00;93274.50;2032859;28;20469;-77
2023/12/03 05:08:06;;;;;;;6.35;4.60;;;;;;;-9.01;100.00;93284.28;2039962;28;21142;-77
2023/12/03 05:09:39;;;;;;;6.80;3.65;;;;;;;-9.06;100.00;93275.84;2064786;27;20606;-78
2023/12/03 05:11:20;;;;;;;6.05;4.00;;;;;;;-9.24;100.00;93277.47;2062392;28;20952;-77
2023/12/03 05:14:20;;;;;;;5.75;3.30;;;;;;;-8.95;100.00;93288.31;2083388;28;20549;-78
2023/12/03 05:15:21;;;;;;;4.70;3.45;;;;;;;-8.83;100.00;93279.25;2086432;28;20459;-76
2023/12/03 05:16:57;;;;;;;5.57;4.00;;;;;;;-8.88;100.00;93278.31;2098366;27;20992;-77
2023/12/03 05:17:58;;;;;;;6.13;3.58;;;;;;;-8.85;100.00;93284.75;2118465;27;20061;-76
2023/12/03 05:22:54;;;;;;;5.32;3.75;;;;;;;-8.93;100.00;93285.41;2105123;28;20456;-79
2023/12/03 05:25:52;;;;;;;6.38;3.72;;;;;;;-9.00;100.00;93290.22;2104638;28;20474;-76
2023/12/03 05:26:53;;;;;;;6.45;4.20;;;;;;;-8.97;100.00;93289.63;2105408;28;20429;-77
2023/12/03 05:27:54;;;;;;;6.68;4.28;;;;;;;-8.92;100.00;93300.66;2090789;28;21012;-76
2023/12/03 05:32:49;;;;;;;4.60;3.78;;;;;;;-9.15;100.00;93299.81;2121794;27;20443;-77
2023/12/03 05:39:44;;;;;;;5.15;3.28;;;;;;;-9.22;100.00;93298.66;2106249;28;20855;-75
2023/12/03 05:47:07;;;;;;;6.05;3.80;;;;;;;-9.31;100.00;93301.16;2112029;28;20790;-78
2023/12/03 05:50:07;;;;;;;4.55;3.63;;;;;;;-9.28;100.00;93298.00;2105859;27;20454;-78
2023/12/03 05:53:11;;;;;;;6.95;3.33;;;;;;;-9.33;100.00;93303.25;2035278;28;20448;-77
2023/12/03 06:02:04;;;;;;;5.15;3.70;;;;;;;-9.63;100.00;93314.91;2074341;28;20460;-77
2023/12/03 06:06:59;;;;;;;5.32;3.38;;;;;;;-9.64;100.00;93308.97;2089617;28;20477;-78
2023/12/03 06:08:00;;;;;;;5.35;3.53;;;;;;;-9.51;100.00;93309.28;2086992;28;20463;-77
2023/12/03 06:09:47;;;;;;;5.18;4.10;;;;;;;-9.57;100.00;93316.34;2108943;28;20050;-78
2023/12/03 06:10:48;;;;;;;5.68;3.88;;;;;;;-9.70;100.00;93315.31;2114156;27;20043;-77
2023/12/03 06:11:51;;;;;;;8.07;4.50;;;;;;;-9.58;100.00;93321.81;2112751;28;21557;-78
2023/12/03 06:15:44;;;;;;;4.95;3.65;;;;;;;-9.68;100.00;93323.53;2113735;27;20490;-77
2023/12/03 06:16:45;;;;;;;5.38;3.35;;;;;;;-9.55;100.00;93329.03;2111955;28;20590;-78
2023/12/03 06:18:17;;;;;;;5.60;3.67;;;;;;;-9.56;100.00;93338.59;2095688;28;20522;-77
2023/12/03 06:21:15;;;;;;;4.80;2.97;;;;;;;-9.64;100.00;93329.69;2111272;28;21022;-77
2023/12/03 06:26:10;;;;;;;4.93;3.38;;;;;;;-9.70;100.00;93319.69;2106074;28;20763;-77
2023/12/03 06:27:11;;;;;;;5.32;3.33;;;;;;;-9.79;100.00;93329.16;2112332;28;20567;-78
2023/12/03 06:28:12;;;;;;;6.22;3.85;;;;;;;-9.90;100.00;93336.31;2113608;28;20027;-77
2023/12/03 06:31:15;;;;;;;4.90;3.17;;;;;;;-9.88;100.00;93331.59;2104734;28;20027;-77
2023/12/03 06:32:42;;;;;;;6.65;4.00;;;;;;;-9.90;100.00;93326.72;2104326;28;20573;-78
2023/12/03 06:33:43;;;;;;;5.60;3.38;;;;;;;-9.84;100.00;93330.00;2101318;28;20512;-78
2023/12/03 06:34:44;;;;;;;5.72;3.90;;;;;;;-9.74;100.00;93326.50;2103190;28;20442;-76
2023/12/03 06:35:45;;;;;;;7.97;4.10;;;;;;;-9.62;100.00;93331.97;2106939;28;20027;-77
2023/12/03 06:36:46;;;;;;;6.57;4.00;;;;;;;-9.67;100.00;93335.41;2105435;28;20020;-79
2023/12/03 06:37:46;;;;;;;6.60;4.72;;;;;;;-9.74;100.00;93335.03;2117603;28;20480;-79
2023/12/03 06:39:34;;;;;;;8.52;5.63;;;;;;;-9.79;100.00;93334.31;2122643;28;20076;-76
2023/12/03 06:40:37;;;;;;;8.63;5.00;;;;;;;-9.84;100.00;93331.81;2121878;28;20600;-77
2023/12/03 06:42:04;;;;;;;7.72;4.80;;;;;;;-9.94;100.00;93330.94;2104599;28;20832;-77
2023/12/03 06:43:08;;;;;;;6.43;5.20;;;;;;;-10.12;100.00;93343.88;2108338;28;20476;-77
2023/12/03 06:44:12;;;;;;;6.55;4.35;;;;;;;-10.00;100.00;93337.25;2113288;28;20477;-75
2023/12/03 06:45:49;;;;;;;6.25;4.65;;;;;;;-9.84;100.00;93337.75;2113132;28;20450;-77
2023/12/03 06:47:03;;;;;;;7.47;4.72;;;;;;;-9.90;100.00;93344.06;2110298;28;20455;-76
2023/12/03 06:48:04;;;;;;;6.70;4.90;;;;;;;-9.93;100.00;93331.69;2112908;28;20824;-76
2023/12/03 06:49:05;;;;;;;7.43;4.47;;;;;;;-9.88;100.00;93336.78;2113415;28;20449;-76
2023/12/03 06:50:07;;;;;;;7.55;5.32;;;;;;;-9.93;100.00;93337.63;2122400;28;20452;-76
2023/12/03 06:51:08;;;;;;;9.40;5.63;;;;;;;-10.03;100.00;93337.03;2122382;28;20986;-76
2023/12/03 06:52:09;;;;;;;7.25;5.00;;;;;;;-10.19;100.00;93339.06;2118082;28;20453;-77
2023/12/03 06:53:10;;;;;;;7.47;4.38;;;;;;;-10.48;100.00;93340.03;2113461;28;20461;-78
2023/12/03 06:54:12;;;;;;;8.45;4.45;;;;;;;-10.31;100.00;93342.13;2096261;28;20032;-77
2023/12/03 06:55:13;;;;;;;12.55;5.60;;;;;;;-10.38;100.00;93330.59;2103215;28;20039;-77
2023/12/03 06:56:13;;;;;;;6.32;4.40;;;;;;;-10.33;100.00;93335.69;2111162;28;21200;-79
2023/12/03 06:57:14;;;;;;;7.00;4.57;;;;;;;-10.29;100.00;93340.00;2121739;28;20525;-77
2023/12/03 06:58:15;;;;;;;14.40;7.93;;;;;;;-10.15;100.00;93340.03;2114486;28;20008;-78
2023/12/03 06:59:16;;;;;;;13.88;8.15;;;;;;;-10.02;100.00;93343.72;2105887;28;20058;-77
2023/12/03 07:00:17;;;;;;;12.32;7.63;;;;;;;-10.17;100.00;93344.75;2098013;28;20035;-77
2023/12/03 07:01:18;;;;;;;16.25;9.13;;;;;;;-10.12;100.00;93344.66;2100938;28;20029;-77
2023/12/03 07:02:23;;;;;;;14.73;8.05;;;;;;;-10.08;100.00;93344.88;2110442;28;20495;-76
2023/12/03 07:03:24;;;;;;;15.63;8.45;;;;;;;-10.19;100.00;93352.75;2095664;28;20722;-76
2023/12/03 07:04:25;;;;;;;12.70;8.20;;;;;;;-10.06;100.00;93350.50;2097898;28;20016;-77
2023/12/03 07:05:26;;;;;;;12.13;7.50;;;;;;;-10.15;100.00;93356.31;2119808;28;20032;-77